Time;durP1;ratioP1;P1;durP2;ratioP2;P2;SDS_P1;SDS_P2;PMS_P1;PMS_P2;Temp;Humidity;BMP_temperature;BMP_pressure;BME280_temperature;BME280_humidity;BME280_pressure;Samples;Min_cycle;Max_cycle;Signal;HPM_P1;HPM_P2
2022/10/23 00:01:27;;;;;;;;;;;;;;;;;;5094465;28;1907;-49
2022/10/23 00:04:00;;;;;;;;;;;;;;;;;;5094394;28;2018;-45
2022/10/23 00:06:28;;;;;;;;;;;;;;;;;;5094526;28;2067;-48
2022/10/23 00:08:55;;;;;;;;;;;;;;;;;;5094466;28;1701;-51
2022/10/23 00:11:24;;;;;;;;;;;;;;;;;;5094232;28;2396;-51
2022/10/23 00:13:52;;;;;;;;;;;;;;;;;;5094316;28;1888;-49
2022/10/23 00:16:20;;;;;;;;;;;;;;;;;;5092771;28;2071;-49
2022/10/23 00:18:47;;;;;;;;;;;;;;;;;;5094260;28;1918;-48
2022/10/23 00:21:15;;;;;;;;;;;;;;;;;;5093994;28;2087;-50
2022/10/23 00:23:42;;;;;;;;;;;;;;;;;;5094209;28;2187;-50
2022/10/23 00:26:13;;;;;;;;;;;;;;;;;;5094153;28;2096;-49
2022/10/23 00:28:44;;;;;;;;;;;;;;;;;;5094062;28;2457;-52
2022/10/23 00:31:12;;;;;;;;;;;;;;;;;;5093102;28;2022;-47
2022/10/23 00:33:39;;;;;;;;;;;;;;;;;;5102071;28;1542;-53
2022/10/23 00:36:07;;;;;;;;;;;;;;;;;;5114401;27;2161;-48
2022/10/23 00:38:35;;;;;;;;;;;;;;;;;;5114274;28;1976;-49
2022/10/23 00:41:02;;;;;;;;;;;;;;;;;;5113879;28;1924;-43
2022/10/23 00:43:30;;;;;;;;;;;;;;;;;;5113001;28;2168;-45
2022/10/23 00:45:57;;;;;;;;;;;;;;;;;;5114248;28;1550;-52
2022/10/23 00:48:27;;;;;;;;;;;;;;;;;;5113582;28;1805;-49
2022/10/23 00:50:55;;;;;;;;;;;;;;;;;;5112822;27;2176;-49
2022/10/23 00:53:23;;;;;;;;;;;;;;;;;;5111830;28;2025;-47
2022/10/23 00:55:54;;;;;;;;;;;;;;;;;;5112757;28;2011;-52
2022/10/23 00:58:21;;;;;;;;;;;;;;;;;;5113798;28;1913;-44
2022/10/23 01:00:50;;;;;;;;;;;;;;;;;;5111958;28;2332;-53
2022/10/23 01:03:18;;;;;;;;;;;;;;;;;;5111945;28;1905;-50
2022/10/23 01:05:52;;;;;;;;;;;;;;;;;;5112128;28;1805;-51
2022/10/23 01:08:20;;;;;;;;;;;;;;;;;;5113858;28;1806;-50
2022/10/23 01:10:51;;;;;;;;;;;;;;;;;;5112360;28;2110;-48
2022/10/23 01:13:30;;;;;;;;;;;;;;;;;;5113473;28;1839;-46
2022/10/23 01:16:06;;;;;;;;;;;;;;;;;;5112349;28;1789;-48
2022/10/23 01:18:39;;;;;;;;;;;;;;;;;;5112297;28;2106;-50
2022/10/23 01:21:39;;;;;;;;;;;;;;;;;;5112359;28;1903;-45
2022/10/23 01:24:15;;;;;;;;;;;;;;;;;;5089351;28;2055;-50
2022/10/23 01:27:12;;;;;;;;;;;;;;;;;;5111989;28;2289;-51
2022/10/23 01:29:45;;;;;;;;;;;;;;;;;;5108387;28;1686;-51
2022/10/23 01:32:14;;;;;;;;;;;;;;;;;;5113371;28;2017;-45
2022/10/23 01:34:41;;;;;;;;;;;;;;;;;;5094858;28;1871;-51
2022/10/23 01:37:10;;;;;;;;;;;;;;;;;;5091497;28;2222;-44
2022/10/23 01:39:39;;;;;;;;;;;;;;;;;;5091281;28;1940;-46
2022/10/23 01:42:07;;;;;;;;;;;;;;;;;;5092480;28;1899;-49
2022/10/23 01:44:40;;;;;;;;;;;;;;;;;;5092317;28;1908;-43
2022/10/23 01:47:09;;;;;;;;;;;;;;;;;;5091235;28;1883;-50
2022/10/23 01:49:51;;;;;;;;;;;;;;;;;;5091178;28;1930;-51
2022/10/23 01:52:19;;;;;;;;;;;;;;;;;;5091083;28;2088;-48
2022/10/23 01:54:49;;;;;;;;;;;;;;;;;;5090950;28;2038;-51
2022/10/23 01:57:19;;;;;;;;;;;;;;;;;;5091116;28;2211;-48
2022/10/23 01:59:50;;;;;;;;;;;;;;;;;;5091091;28;1921;-43
2022/10/23 02:02:21;;;;;;;;;;;;;;;;;;5090591;28;2136;-47
2022/10/23 02:05:13;;;;;;;;;;;;;;;;;;5090366;28;1900;-48
2022/10/23 02:07:40;;;;;;;;;;;;;;;;;;5092185;28;1998;-45
2022/10/23 02:10:08;;;;;;;;;;;;;;;;;;5092349;28;1855;-48
2022/10/23 02:12:45;;;;;;;;;;;;;;;;;;5091241;28;1856;-44
2022/10/23 02:15:17;;;;;;;;;;;;;;;;;;5092311;28;2061;-45
2022/10/23 02:18:03;;;;;;;;;;;;;;;;;;5091824;28;2350;-47
2022/10/23 02:20:34;;;;;;;;;;;;;;;;;;5090393;28;1914;-46
2022/10/23 02:23:19;;;;;;;;;;;;;;;;;;5091961;28;2125;-47
2022/10/23 02:25:47;;;;;;;;;;;;;;;;;;5091845;28;2033;-43
2022/10/23 02:28:16;;;;;;;;;;;;;;;;;;5090522;28;2351;-50
2022/10/23 02:30:47;;;;;;;;;;;;;;;;;;5090552;28;1426;-50
2022/10/23 02:33:15;;;;;;;;;;;;;;;;;;5096253;28;2137;-48
2022/10/23 02:35:43;;;;;;;;;;;;;;;;;;5110771;28;1897;-43
2022/10/23 02:38:30;;;;;;;;;;;;;;;;;;5110494;28;2065;-48
2022/10/23 02:41:08;;;;;;;;;;;;;;;;;;5110311;28;1750;-49
2022/10/23 02:43:41;;;;;;;;;;;;;;;;;;5110755;28;1953;-47
2022/10/23 02:46:16;;;;;;;;;;;;;;;;;;5110694;28;1355;-47
2022/10/23 02:48:46;;;;;;;;;;;;;;;;;;5110556;28;2030;-48
2022/10/23 02:51:24;;;;;;;;;;;;;;;;;;5110322;28;2016;-42
2022/10/23 02:54:05;;;;;;;;;;;;;;;;;;5091307;28;1671;-42
2022/10/23 02:56:37;;;;;;;;;;;;;;;;;;5089970;28;1926;-51
2022/10/23 02:59:15;;;;;;;;;;;;;;;;;;5090105;28;1977;-51
2022/10/23 03:01:54;;;;;;;;;;;;;;;;;;5089492;28;1670;-43
2022/10/23 03:04:23;;;;;;;;;;;;;;;;;;5089862;28;2251;-48
2022/10/23 03:06:51;;;;;;;;;;;;;;;;;;5089958;28;1825;-48
2022/10/23 03:09:18;;;;;;;;;;;;;;;;;;5091304;28;1926;-49
2022/10/23 03:11:45;;;;;;;;;;;;;;;;;;5091339;28;1755;-42
2022/10/23 03:14:13;;;;;;;;;;;;;;;;;;5089656;28;2016;-42
2022/10/23 03:16:40;;;;;;;;;;;;;;;;;;5091498;28;2340;-46
2022/10/23 03:19:08;;;;;;;;;;;;;;;;;;5096711;28;1912;-46
2022/10/23 03:21:35;;;;;;;;;;;;;;;;;;5096361;28;2054;-44
2022/10/23 03:24:06;;;;;;;;;;;;;;;;;;5097956;28;1806;-47
2022/10/23 03:26:39;;;;;;;;;;;;;;;;;;5109009;28;2009;-48
2022/10/23 03:29:06;;;;;;;;;;;;;;;;;;5116601;28;1866;-45
2022/10/23 03:31:40;;;;;;;;;;;;;;;;;;5116883;27;2087;-49
2022/10/23 03:34:10;;;;;;;;;;;;;;;;;;5104694;27;1994;-43
2022/10/23 03:36:39;;;;;;;;;;;;;;;;;;5096394;28;1808;-45
2022/10/23 03:39:08;;;;;;;;;;;;;;;;;;5096247;28;1925;-49
2022/10/23 03:41:35;;;;;;;;;;;;;;;;;;5096193;28;1824;-46
2022/10/23 03:44:02;;;;;;;;;;;;;;;;;;5096305;28;2293;-45
2022/10/23 03:46:30;;;;;;;;;;;;;;;;;;5096530;28;1858;-49
2022/10/23 03:48:58;;;;;;;;;;;;;;;;;;5096279;28;1653;-44
2022/10/23 03:51:26;;;;;;;;;;;;;;;;;;5097499;28;1749;-47
2022/10/23 03:53:53;;;;;;;;;;;;;;;;;;5096129;28;1738;-52
2022/10/23 03:56:20;;;;;;;;;;;;;;;;;;5096250;28;1965;-46
2022/10/23 03:58:47;;;;;;;;;;;;;;;;;;5096116;28;1973;-48
2022/10/23 04:01:15;;;;;;;;;;;;;;;;;;5097519;28;1154;-44
2022/10/23 04:03:43;;;;;;;;;;;;;;;;;;5096088;28;1717;-45
2022/10/23 04:06:11;;;;;;;;;;;;;;;;;;5097485;28;1876;-49
2022/10/23 04:08:38;;;;;;;;;;;;;;;;;;5096188;28;2058;-46
2022/10/23 04:11:11;;;;;;;;;;;;;;;;;;5096218;28;2142;-49
2022/10/23 04:13:43;;;;;;;;;;;;;;;;;;5097653;28;1654;-48
2022/10/23 04:16:11;;;;;;;;;;;;;;;;;;5096317;28;2156;-49
2022/10/23 04:18:41;;;;;;;;;;;;;;;;;;5095746;28;1609;-50
2022/10/23 04:21:09;;;;;;;;;;;;;;;;;;5095768;28;1902;-44
2022/10/23 04:23:37;;;;;;;;;;;;;;;;;;5095908;28;2117;-50
2022/10/23 04:26:09;;;;;;;;;;;;;;;;;;5095897;28;1699;-52
2022/10/23 04:28:37;;;;;;;;;;;;;;;;;;5093541;28;2111;-50
2022/10/23 04:31:04;;;;;;;;;;;;;;;;;;5092724;28;1803;-44
2022/10/23 04:33:32;;;;;;;;;;;;;;;;;;5100883;28;1849;-46
2022/10/23 04:35:59;;;;;;;;;;;;;;;;;;5114543;28;1981;-46
2022/10/23 04:38:26;;;;;;;;;;;;;;;;;;5114292;28;1822;-44
2022/10/23 04:40:53;;;;;;;;;;;;;;;;;;5110313;28;2169;-43
2022/10/23 04:43:21;;;;;;;;;;;;;;;;;;5092509;28;2196;-47
2022/10/23 04:45:49;;;;;;;;;;;;;;;;;;5092207;28;1958;-41
2022/10/23 04:48:16;;;;;;;;;;;;;;;;;;5092544;28;2176;-41
2022/10/23 04:51:04;;;;;;;;;;;;;;;;;;5093345;28;2283;-44
2022/10/23 04:53:49;;;;;;;;;;;;;;;;;;5078203;28;1672;-44
2022/10/23 04:56:52;;;;;;;;;;;;;;;;;;5071209;28;1566;-46
2022/10/23 04:59:20;;;;;;;;;;;;;;;;;;5084325;28;2231;-45
2022/10/23 05:01:48;;;;;;;;;;;;;;;;;;5093515;28;1810;-46
2022/10/23 05:04:19;;;;;;;;;;;;;;;;;;5092044;28;1645;-44
2022/10/23 05:07:06;;;;;;;;;;;;;;;;;;5102366;28;1804;-41
2022/10/23 05:09:56;;;;;;;;;;;;;;;;;;5093053;28;1995;-47
2022/10/23 05:12:41;;;;;;;;;;;;;;;;;;5091895;28;2166;-45
2022/10/23 05:15:08;;;;;;;;;;;;;;;;;;5091973;28;2543;-47
2022/10/23 05:17:36;;;;;;;;;;;;;;;;;;5093200;28;1847;-45
2022/10/23 05:20:06;;;;;;;;;;;;;;;;;;5091732;28;1905;-45
2022/10/23 05:22:35;;;;;;;;;;;;;;;;;;5092791;28;1936;-51
2022/10/23 05:25:05;;;;;;;;;;;;;;;;;;5091698;28;1871;-45
2022/10/23 05:27:33;;;;;;;;;;;;;;;;;;5092731;28;2197;-48
2022/10/23 05:30:02;;;;;;;;;;;;;;;;;;5092885;28;1648;-49
2022/10/23 05:32:34;;;;;;;;;;;;;;;;;;5091410;28;1926;-49
2022/10/23 05:35:06;;;;;;;;;;;;;;;;;;5091681;28;1815;-49
2022/10/23 05:37:33;;;;;;;;;;;;;;;;;;5108335;28;2391;-40
2022/10/23 05:40:06;;;;;;;;;;;;;;;;;;5091391;28;1985;-42
2022/10/23 05:42:35;;;;;;;;;;;;;;;;;;5092361;28;2184;-44
2022/10/23 05:45:05;;;;;;;;;;;;;;;;;;5091344;28;2239;-43
2022/10/23 05:47:55;;;;;;;;;;;;;;;;;;5091857;28;1475;-43
2022/10/23 05:50:54;;;;;;;;;;;;;;;;;;5091217;28;2185;-50
2022/10/23 05:53:36;;;;;;;;;;;;;;;;;;5091187;28;1940;-46
2022/10/23 05:56:13;;;;;;;;;;;;;;;;;;5091094;28;2000;-50
2022/10/23 05:58:52;;;;;;;;;;;;;;;;;;5092556;28;1898;-43
2022/10/23 06:01:45;;;;;;;;;;;;;;;;;;5091151;28;2183;-45
2022/10/23 06:04:17;;;;;;;;;;;;;;;;;;5090888;28;2363;-45
2022/10/23 06:07:24;;;;;;;;;;;;;;;;;;5069328;28;1897;-44
2022/10/23 06:09:53;;;;;;;;;;;;;;;;;;5052993;28;2955;-48
2022/10/23 06:12:21;;;;;;;;;;;;;;;;;;5070331;28;2105;-44
2022/10/23 06:14:49;;;;;;;;;;;;;;;;;;5092410;28;1564;-46
2022/10/23 06:17:18;;;;;;;;;;;;;;;;;;5092134;28;1463;-43
2022/10/23 06:19:46;;;;;;;;;;;;;;;;;;5090490;28;1895;-47
2022/10/23 06:22:16;;;;;;;;;;;;;;;;;;5090804;28;2011;-44
2022/10/23 06:24:54;;;;;;;;;;;;;;;;;;5090381;28;2066;-44
2022/10/23 06:27:25;;;;;;;;;;;;;;;;;;5090603;28;1596;-47
2022/10/23 06:29:53;;;;;;;;;;;;;;;;;;5090280;28;2052;-45
2022/10/23 06:32:21;;;;;;;;;;;;;;;;;;5074184;28;1926;-43
2022/10/23 06:35:08;;;;;;;;;;;;;;;;;;5090297;28;1991;-47
2022/10/23 06:37:35;;;;;;;;;;;;;;;;;;5090485;28;2072;-42
2022/10/23 06:40:16;;;;;;;;;;;;;;;;;;5089748;28;1978;-45
2022/10/23 06:43:09;;;;;;;;;;;;;;;;;;5090110;28;1806;-43
2022/10/23 06:46:06;;;;;;;;;;;;;;;;;;5082215;28;1990;-47
2022/10/23 06:49:03;;;;;;;;;;;;;;;;;;5082050;28;1908;-47
2022/10/23 06:51:35;;;;;;;;;;;;;;;;;;5090806;28;1977;-48
2022/10/23 06:54:03;;;;;;;;;;;;;;;;;;5090229;28;2084;-50
2022/10/23 06:56:56;;;;;;;;;;;;;;;;;;5091615;28;1887;-45
2022/10/23 06:59:33;;;;;;;;;;;;;;;;;;5090048;28;2158;-47
2022/10/23 07:02:00;;;;;;;;;;;;;;;;;;5091237;28;2109;-51
2022/10/23 07:04:27;;;;;;;;;;;;;;;;;;5089895;28;1925;-49
2022/10/23 07:06:55;;;;;;;;;;;;;;;;;;5091463;28;2023;-46
2022/10/23 07:09:30;;;;;;;;;;;;;;;;;;5089480;28;1887;-50
2022/10/23 07:12:18;;;;;;;;;;;;;;;;;;5090997;28;1769;-50
2022/10/23 07:14:50;;;;;;;;;;;;;;;;;;5089866;28;2291;-45
2022/10/23 07:17:17;;;;;;;;;;;;;;;;;;5089861;28;1823;-46
2022/10/23 07:19:46;;;;;;;;;;;;;;;;;;5089555;28;2008;-45
2022/10/23 07:22:14;;;;;;;;;;;;;;;;;;5089371;28;1806;-49
2022/10/23 07:25:07;;;;;;;;;;;;;;;;;;5088763;28;1843;-44
2022/10/23 07:27:39;;;;;;;;;;;;;;;;;;5089338;28;1654;-48
2022/10/23 07:30:08;;;;;;;;;;;;;;;;;;5089574;28;2221;-45
2022/10/23 07:32:50;;;;;;;;;;;;;;;;;;5089317;28;1914;-52
2022/10/23 07:35:37;;;;;;;;;;;;;;;;;;5091051;28;1920;-46
2022/10/23 07:38:12;;;;;;;;;;;;;;;;;;5089585;28;1482;-49
2022/10/23 07:40:44;;;;;;;;;;;;;;;;;;5089400;28;2118;-48
2022/10/23 07:43:14;;;;;;;;;;;;;;;;;;5089546;28;2341;-48
2022/10/23 07:45:41;;;;;;;;;;;;;;;;;;5090850;28;2167;-47
2022/10/23 07:48:17;;;;;;;;;;;;;;;;;;5089716;28;1974;-44
2022/10/23 07:51:00;;;;;;;;;;;;;;;;;;5090449;28;1941;-46
2022/10/23 07:53:29;;;;;;;;;;;;;;;;;;5090662;28;2118;-42
2022/10/23 07:56:13;;;;;;;;;;;;;;;;;;5089645;28;2386;-47
2022/10/23 07:58:59;;;;;;;;;;;;;;;;;;5091008;28;1822;-41
2022/10/23 08:01:29;;;;;;;;;;;;;;;;;;5090921;28;2131;-46
2022/10/23 08:03:57;;;;;;;;;;;;;;;;;;5090336;28;1635;-45
2022/10/23 08:06:24;;;;;;;;;;;;;;;;;;5093280;28;1762;-47
2022/10/23 08:08:52;;;;;;;;;;;;;;;;;;5093347;28;1833;-43
2022/10/23 08:11:26;;;;;;;;;;;;;;;;;;5093214;28;1812;-49
2022/10/23 08:13:55;;;;;;;;;;;;;;;;;;5094353;28;2100;-44
2022/10/23 08:16:24;;;;;;;;;;;;;;;;;;5092749;28;2284;-52
2022/10/23 08:19:07;;;;;;;;;;;;;;;;;;5094092;28;1410;-46
2022/10/23 08:21:37;;;;;;;;;;;;;;;;;;5092775;28;1983;-49
2022/10/23 08:24:04;;;;;;;;;;;;;;;;;;5092870;28;2018;-51
2022/10/23 08:26:32;;;;;;;;;;;;;;;;;;5093993;28;1784;-47
2022/10/23 08:28:59;;;;;;;;;;;;;;;;;;5092986;28;1802;-45
2022/10/23 08:31:27;;;;;;;;;;;;;;;;;;5094122;28;1684;-45
2022/10/23 08:34:12;;;;;;;;;;;;;;;;;;5093979;28;1899;-45
2022/10/23 08:36:41;;;;;;;;;;;;;;;;;;5092702;28;1700;-50
2022/10/23 08:39:08;;;;;;;;;;;;;;;;;;5093710;28;1721;-46
2022/10/23 08:41:42;;;;;;;;;;;;;;;;;;5092215;28;2074;-53
2022/10/23 08:44:15;;;;;;;;;;;;;;;;;;5092460;28;1859;-49
2022/10/23 08:46:48;;;;;;;;;;;;;;;;;;5092448;28;1751;-51
2022/10/23 08:49:23;;;;;;;;;;;;;;;;;;5094067;28;2269;-50
2022/10/23 08:51:57;;;;;;;;;;;;;;;;;;5092418;28;2013;-45
2022/10/23 08:54:27;;;;;;;;;;;;;;;;;;5093612;28;1987;-49
2022/10/23 08:57:07;;;;;;;;;;;;;;;;;;5093420;28;1864;-47
2022/10/23 08:59:38;;;;;;;;;;;;;;;;;;5075286;28;1888;-47
2022/10/23 09:02:23;;;;;;;;;;;;;;;;;;5092823;28;2005;-47
2022/10/23 09:04:51;;;;;;;;;;;;;;;;;;5091880;28;2139;-50
2022/10/23 09:07:18;;;;;;;;;;;;;;;;;;5093254;28;1241;-51
2022/10/23 09:10:03;;;;;;;;;;;;;;;;;;5093210;28;2091;-48
2022/10/23 09:12:31;;;;;;;;;;;;;;;;;;5093339;28;1954;-52
2022/10/23 09:15:03;;;;;;;;;;;;;;;;;;5091590;28;1836;-42
2022/10/23 09:17:30;;;;;;;;;;;;;;;;;;5093562;28;1670;-50
2022/10/23 09:20:20;;;;;;;;;;;;;;;;;;5093186;28;2056;-50
2022/10/23 09:22:55;;;;;;;;;;;;;;;;;;5092604;28;1681;-53
2022/10/23 09:25:28;;;;;;;;;;;;;;;;;;5092750;28;2026;-50
2022/10/23 09:27:58;;;;;;;;;;;;;;;;;;5092790;28;1670;-41
2022/10/23 09:30:33;;;;;;;;;;;;;;;;;;5093022;28;1945;-49
2022/10/23 09:33:12;;;;;;;;;;;;;;;;;;5093082;28;1885;-50
2022/10/23 09:35:50;;;;;;;;;;;;;;;;;;5093005;28;1776;-54
2022/10/23 09:38:25;;;;;;;;;;;;;;;;;;5108472;28;1429;-51
2022/10/23 09:40:52;;;;;;;;;;;;;;;;;;5092631;28;1906;-53
2022/10/23 09:43:24;;;;;;;;;;;;;;;;;;5092399;28;1714;-50
2022/10/23 09:46:01;;;;;;;;;;;;;;;;;;5092272;28;1755;-49
2022/10/23 09:48:29;;;;;;;;;;;;;;;;;;5092467;28;2156;-50
2022/10/23 09:51:00;;;;;;;;;;;;;;;;;;5092376;28;2011;-51
2022/10/23 09:53:38;;;;;;;;;;;;;;;;;;5092558;28;1963;-49
2022/10/23 09:56:10;;;;;;;;;;;;;;;;;;5092426;28;1961;-46
2022/10/23 09:58:41;;;;;;;;;;;;;;;;;;5092357;28;1919;-53
2022/10/23 10:01:21;;;;;;;;;;;;;;;;;;5092397;28;1929;-46
2022/10/23 10:03:50;;;;;;;;;;;;;;;;;;5090481;28;2029;-49
2022/10/23 10:06:25;;;;;;;;;;;;;;;;;;5090687;28;2284;-49
2022/10/23 10:08:54;;;;;;;;;;;;;;;;;;5092148;28;1819;-52
2022/10/23 10:11:26;;;;;;;;;;;;;;;;;;5092094;28;2048;-51
2022/10/23 10:13:56;;;;;;;;;;;;;;;;;;5091995;28;1743;-50
2022/10/23 10:16:32;;;;;;;;;;;;;;;;;;5091879;28;2201;-44
2022/10/23 10:19:09;;;;;;;;;;;;;;;;;;5091909;28;1791;-44
2022/10/23 10:21:54;;;;;;;;;;;;;;;;;;5091920;28;1997;-50
2022/10/23 10:24:39;;;;;;;;;;;;;;;;;;5091716;28;1860;-49
2022/10/23 10:27:16;;;;;;;;;;;;;;;;;;5089832;28;1849;-49
2022/10/23 10:29:49;;;;;;;;;;;;;;;;;;5091798;28;1811;-47
2022/10/23 10:32:34;;;;;;;;;;;;;;;;;;5091870;28;1983;-73
2022/10/23 10:35:07;;;;;;;;;;;;;;;;;;5091585;28;1805;-52
2022/10/23 10:37:53;;;;;;;;;;;;;;;;;;5091920;28;1663;-47
2022/10/23 10:40:50;;;;;;;;;;;;;;;;;;5092934;28;2088;-49
2022/10/23 10:43:27;;;;;;;;;;;;;;;;;;5107031;28;1808;-49
2022/10/23 10:46:06;;;;;;;;;;;;;;;;;;5111767;28;1697;-47
2022/10/23 10:48:36;;;;;;;;;;;;;;;;;;5111967;28;1574;-52
2022/10/23 10:51:35;;;;;;;;;;;;;;;;;;5110435;28;1827;-49
2022/10/23 10:54:17;;;;;;;;;;;;;;;;;;5091162;28;1490;-46
2022/10/23 10:56:46;;;;;;;;;;;;;;;;;;5091170;28;1784;-47
2022/10/23 10:59:16;;;;;;;;;;;;;;;;;;5091457;28;1379;-49
2022/10/23 11:01:51;;;;;;;;;;;;;;;;;;5091061;28;2339;-45
2022/10/23 11:04:28;;;;;;;;;;;;;;;;;;5091090;28;1511;-46
2022/10/23 11:06:57;;;;;;;;;;;;;;;;;;5090978;28;2063;-46
2022/10/23 11:09:26;;;;;;;;;;;;;;;;;;5091341;28;1745;-45
2022/10/23 11:11:53;;;;;;;;;;;;;;;;;;5091279;28;2145;-51
2022/10/23 11:14:29;;;;;;;;;;;;;;;;;;5091327;28;2117;-52
2022/10/23 11:17:01;;;;;;;;;;;;;;;;;;5091108;28;1979;-46
2022/10/23 11:19:54;;;;;;;;;;;;;;;;;;5091079;28;2183;-49
2022/10/23 11:22:31;;;;;;;;;;;;;;;;;;5090021;28;1988;-46
2022/10/23 11:25:04;;;;;;;;;;;;;;;;;;5090950;28;1482;-47
2022/10/23 11:27:46;;;;;;;;;;;;;;;;;;5090807;28;2011;-51
2022/10/23 11:30:16;;;;;;;;;;;;;;;;;;5090566;28;1974;-46
2022/10/23 11:32:43;;;;;;;;;;;;;;;;;;5091086;28;2175;-47
2022/10/23 11:35:13;;;;;;;;;;;;;;;;;;5091197;28;1597;-44
2022/10/23 11:37:40;;;;;;;;;;;;;;;;;;5091577;28;1601;-46
2022/10/23 11:40:08;;;;;;;;;;;;;;;;;;5095269;28;1451;-47
2022/10/23 11:42:38;;;;;;;;;;;;;;;;;;5094777;28;2196;-49
2022/10/23 11:45:23;;;;;;;;;;;;;;;;;;5095062;28;1825;-46
2022/10/23 11:47:58;;;;;;;;;;;;;;;;;;5094898;28;1708;-49
2022/10/23 11:50:29;;;;;;;;;;;;;;;;;;5093668;28;1913;-45
2022/10/23 11:53:03;;;;;;;;;;;;;;;;;;5094675;28;1871;-46
2022/10/23 11:56:03;;;;;;;;;;;;;;;;;;5094765;28;1714;-47
2022/10/23 11:58:41;;;;;;;;;;;;;;;;;;5094451;28;1824;-51
2022/10/23 12:01:23;;;;;;;;;;;;;;;;;;5094479;28;1901;-51
2022/10/23 12:03:56;;;;;;;;;;;;;;;;;;5093440;28;1678;-49
2022/10/23 12:06:26;;;;;;;;;;;;;;;;;;5092786;28;1822;-45
2022/10/23 12:08:56;;;;;;;;;;;;;;;;;;5094472;28;1948;-52
2022/10/23 12:11:28;;;;;;;;;;;;;;;;;;5094665;28;2006;-52
2022/10/23 12:13:55;;;;;;;;;;;;;;;;;;5094348;28;1835;-53
2022/10/23 12:16:32;;;;;;;;;;;;;;;;;;5094397;28;1684;-47
2022/10/23 12:19:10;;;;;;;;;;;;;;;;;;5094434;28;2099;-44
2022/10/23 12:21:37;;;;;;;;;;;;;;;;;;5094338;28;1906;-51
2022/10/23 12:24:05;;;;;;;;;;;;;;;;;;5094136;28;2106;-44
2022/10/23 12:26:49;;;;;;;;;;;;;;;;;;5094084;28;2070;-54
2022/10/23 12:29:19;;;;;;;;;;;;;;;;;;5094094;28;2205;-45
2022/10/23 12:32:06;;;;;;;;;;;;;;;;;;5094194;28;1655;-43
2022/10/23 12:34:52;;;;;;;;;;;;;;;;;;5110972;28;2148;-49
2022/10/23 12:37:26;;;;;;;;;;;;;;;;;;5113073;28;1698;-49
2022/10/23 12:39:54;;;;;;;;;;;;;;;;;;5114402;28;1785;-49
2022/10/23 12:42:22;;;;;;;;;;;;;;;;;;5114232;28;1922;-48
2022/10/23 12:45:04;;;;;;;;;;;;;;;;;;5114051;28;2044;-45
2022/10/23 12:47:31;;;;;;;;;;;;;;;;;;5112742;28;2006;-49
2022/10/23 12:49:58;;;;;;;;;;;;;;;;;;5113504;28;1741;-50
2022/10/23 12:52:25;;;;;;;;;;;;;;;;;;5114029;28;1740;-46
2022/10/23 12:54:52;;;;;;;;;;;;;;;;;;5114425;28;1855;-54
2022/10/23 12:57:27;;;;;;;;;;;;;;;;;;5114038;28;1831;-50
2022/10/23 13:00:01;;;;;;;;;;;;;;;;;;5114057;28;2168;-52
2022/10/23 13:02:29;;;;;;;;;;;;;;;;;;5113944;28;1972;-67
2022/10/23 13:04:58;;;;;;;;;;;;;;;;;;5113349;28;1677;-50
2022/10/23 13:07:28;;;;;;;;;;;;;;;;;;5110633;27;10045;-48
2022/10/23 13:09:58;;;;;;;;;;;;;;;;;;5112173;28;2323;-47
2022/10/23 13:12:32;;;;;;;;;;;;;;;;;;5112571;28;1732;-48
2022/10/23 13:15:02;;;;;;;;;;;;;;;;;;5113693;28;2152;-43
2022/10/23 13:17:37;;;;;;;;;;;;;;;;;;5113668;28;1423;-48
2022/10/23 13:20:16;;;;;;;;;;;;;;;;;;5113538;28;1821;-49
2022/10/23 13:22:44;;;;;;;;;;;;;;;;;;5112776;28;1974;-52
2022/10/23 13:25:28;;;;;;;;;;;;;;;;;;5112770;28;2053;-47
2022/10/23 13:28:14;;;;;;;;;;;;;;;;;;5111712;28;1706;-40
2022/10/23 13:30:45;;;;;;;;;;;;;;;;;;5111591;28;2059;-49
2022/10/23 13:33:22;;;;;;;;;;;;;;;;;;5106704;28;1730;-46
2022/10/23 13:36:03;;;;;;;;;;;;;;;;;;5092430;28;2178;-49
2022/10/23 13:38:36;;;;;;;;;;;;;;;;;;5092176;28;1381;-51
2022/10/23 13:41:08;;;;;;;;;;;;;;;;;;5092505;28;2010;-49
2022/10/23 13:43:35;;;;;;;;;;;;;;;;;;5092753;28;1992;-45
2022/10/23 13:46:02;;;;;;;;;;;;;;;;;;5092803;28;1931;-47
2022/10/23 13:48:30;;;;;;;;;;;;;;;;;;5092709;28;2225;-46
2022/10/23 13:51:05;;;;;;;;;;;;;;;;;;5092810;28;1495;-48
2022/10/23 13:53:32;;;;;;;;;;;;;;;;;;5092471;28;1521;-45
2022/10/23 13:55:59;;;;;;;;;;;;;;;;;;5091087;28;2143;-45
2022/10/23 13:58:26;;;;;;;;;;;;;;;;;;5092387;28;2003;-45
2022/10/23 14:00:53;;;;;;;;;;;;;;;;;;5092286;28;1891;-48
2022/10/23 14:03:23;;;;;;;;;;;;;;;;;;5092462;28;1970;-48
2022/10/23 14:05:50;;;;;;;;;;;;;;;;;;5092200;28;1996;-49
2022/10/23 14:08:18;;;;;;;;;;;;;;;;;;5091888;28;1682;-51
2022/10/23 14:10:45;;;;;;;;;;;;;;;;;;5092297;28;1968;-49
2022/10/23 14:13:12;;;;;;;;;;;;;;;;;;5092137;28;1655;-49
2022/10/23 14:15:40;;;;;;;;;;;;;;;;;;5092472;28;1990;-51
2022/10/23 14:18:07;;;;;;;;;;;;;;;;;;5091999;28;1768;-48
2022/10/23 14:20:36;;;;;;;;;;;;;;;;;;5092065;28;1696;-51
2022/10/23 14:23:03;;;;;;;;;;;;;;;;;;5091809;28;2142;-49
2022/10/23 14:25:30;;;;;;;;;;;;;;;;;;5097752;28;1691;-48
2022/10/23 14:27:58;;;;;;;;;;;;;;;;;;5091977;28;2230;-50
2022/10/23 14:30:24;;;;;;;;;;;;;;;;;;5091862;28;2074;-50
2022/10/23 14:32:52;;;;;;;;;;;;;;;;;;5092112;28;1950;-46
2022/10/23 14:35:19;;;;;;;;;;;;;;;;;;5091902;28;1998;-44
2022/10/23 14:37:46;;;;;;;;;;;;;;;;;;5092165;28;2208;-48
2022/10/23 14:40:13;;;;;;;;;;;;;;;;;;5091749;28;1636;-52
2022/10/23 14:42:40;;;;;;;;;;;;;;;;;;5091487;28;2152;-50
2022/10/23 14:45:08;;;;;;;;;;;;;;;;;;5091467;28;2026;-50
2022/10/23 14:47:35;;;;;;;;;;;;;;;;;;5091555;28;1605;-47
2022/10/23 14:50:02;;;;;;;;;;;;;;;;;;5090633;28;2039;-45
2022/10/23 14:52:29;;;;;;;;;;;;;;;;;;5090772;28;1951;-49
2022/10/23 14:54:56;;;;;;;;;;;;;;;;;;5090647;28;1926;-45
2022/10/23 14:57:26;;;;;;;;;;;;;;;;;;5091598;28;2069;-46
2022/10/23 14:59:53;;;;;;;;;;;;;;;;;;5091696;28;1531;-49
2022/10/23 15:02:20;;;;;;;;;;;;;;;;;;5091415;28;1910;-52
2022/10/23 15:04:48;;;;;;;;;;;;;;;;;;5091247;28;2028;-46
2022/10/23 15:07:15;;;;;;;;;;;;;;;;;;5091332;28;2319;-46
2022/10/23 15:09:42;;;;;;;;;;;;;;;;;;5091160;28;1820;-47
2022/10/23 15:12:09;;;;;;;;;;;;;;;;;;5091055;28;1914;-44
2022/10/23 15:14:36;;;;;;;;;;;;;;;;;;5089990;28;1907;-47
2022/10/23 15:17:03;;;;;;;;;;;;;;;;;;5091084;28;1892;-51
2022/10/23 15:19:30;;;;;;;;;;;;;;;;;;5091241;28;1535;-47
2022/10/23 15:21:57;;;;;;;;;;;;;;;;;;5091034;28;1909;-41
2022/10/23 15:24:25;;;;;;;;;;;;;;;;;;5091405;28;1827;-51
2022/10/23 15:26:52;;;;;;;;;;;;;;;;;;5091384;28;1586;-43
2022/10/23 15:29:19;;;;;;;;;;;;;;;;;;5091000;28;1972;-51
2022/10/23 15:31:53;;;;;;;;;;;;;;;;;;5091157;28;1930;-42
2022/10/23 15:34:22;;;;;;;;;;;;;;;;;;5090903;28;1410;-50
2022/10/23 15:36:49;;;;;;;;;;;;;;;;;;5091225;28;2135;-47
2022/10/23 15:39:18;;;;;;;;;;;;;;;;;;5091034;28;2059;-40
2022/10/23 15:41:45;;;;;;;;;;;;;;;;;;5090703;28;2202;-40
2022/10/23 15:44:15;;;;;;;;;;;;;;;;;;5090271;28;1380;-46
2022/10/23 15:46:42;;;;;;;;;;;;;;;;;;5090705;28;1542;-51
2022/10/23 15:49:10;;;;;;;;;;;;;;;;;;5090880;28;1926;-46
2022/10/23 15:51:38;;;;;;;;;;;;;;;;;;5090102;28;1242;-50
2022/10/23 15:54:05;;;;;;;;;;;;;;;;;;5090733;28;2150;-48
2022/10/23 15:56:33;;;;;;;;;;;;;;;;;;5090777;28;2026;-46
2022/10/23 15:59:00;;;;;;;;;;;;;;;;;;5090874;28;1592;-45
2022/10/23 16:01:27;;;;;;;;;;;;;;;;;;5090666;28;1834;-50
2022/10/23 16:03:54;;;;;;;;;;;;;;;;;;5090651;28;2005;-48
2022/10/23 16:06:21;;;;;;;;;;;;;;;;;;5090481;28;2050;-49
2022/10/23 16:08:50;;;;;;;;;;;;;;;;;;5090766;28;1855;-47
2022/10/23 16:11:22;;;;;;;;;;;;;;;;;;5090542;28;1555;-46
2022/10/23 16:13:50;;;;;;;;;;;;;;;;;;5090801;28;2015;-43
2022/10/23 16:16:17;;;;;;;;;;;;;;;;;;5091140;28;1950;-46
2022/10/23 16:18:47;;;;;;;;;;;;;;;;;;5090517;28;1786;-43
2022/10/23 16:21:22;;;;;;;;;;;;;;;;;;5090497;28;1954;-50
2022/10/23 16:23:52;;;;;;;;;;;;;;;;;;5090237;28;2078;-50
2022/10/23 16:26:19;;;;;;;;;;;;;;;;;;5093551;28;1879;-46
2022/10/23 16:28:47;;;;;;;;;;;;;;;;;;5093913;28;1484;-48
2022/10/23 16:31:15;;;;;;;;;;;;;;;;;;5094141;28;1696;-45
2022/10/23 16:33:45;;;;;;;;;;;;;;;;;;5093951;28;1802;-47
2022/10/23 16:36:12;;;;;;;;;;;;;;;;;;5093845;28;1774;-45
2022/10/23 16:39:12;;;;;;;;;;;;;;;;;;5087480;28;1583;-49
2022/10/23 16:41:59;;;;;;;;;;;;;;;;;;5094178;28;1876;-49
2022/10/23 16:44:39;;;;;;;;;;;;;;;;;;5092404;28;1863;-48
2022/10/23 16:47:06;;;;;;;;;;;;;;;;;;5093717;28;1283;-46
2022/10/23 16:49:34;;;;;;;;;;;;;;;;;;5093619;28;1860;-42
2022/10/23 16:52:01;;;;;;;;;;;;;;;;;;5093846;28;1852;-49
2022/10/23 16:54:28;;;;;;;;;;;;;;;;;;5093986;28;2153;-50
2022/10/23 16:56:58;;;;;;;;;;;;;;;;;;5093875;28;2100;-46
2022/10/23 16:59:26;;;;;;;;;;;;;;;;;;5093511;28;2147;-46
2022/10/23 17:01:56;;;;;;;;;;;;;;;;;;5093345;28;1780;-47
2022/10/23 17:04:23;;;;;;;;;;;;;;;;;;5093230;28;1984;-48
2022/10/23 17:06:50;;;;;;;;;;;;;;;;;;5093663;28;1818;-49
2022/10/23 17:09:18;;;;;;;;;;;;;;;;;;5093404;28;1564;-51
2022/10/23 17:11:45;;;;;;;;;;;;;;;;;;5093084;28;2072;-43
2022/10/23 17:14:16;;;;;;;;;;;;;;;;;;5093353;28;1882;-47
2022/10/23 17:16:48;;;;;;;;;;;;;;;;;;5093325;28;1971;-48
2022/10/23 17:19:16;;;;;;;;;;;;;;;;;;5093066;28;1648;-45
2022/10/23 17:22:09;;;;;;;;;;;;;;;;;;5093336;28;1906;-49
2022/10/23 17:24:40;;;;;;;;;;;;;;;;;;5092757;28;1902;-45
2022/10/23 17:27:07;;;;;;;;;;;;;;;;;;5093015;28;2084;-50
2022/10/23 17:29:34;;;;;;;;;;;;;;;;;;5093198;28;2162;-48
2022/10/23 17:32:04;;;;;;;;;;;;;;;;;;5091412;28;2185;-46
2022/10/23 17:34:32;;;;;;;;;;;;;;;;;;5109906;28;2137;-48
2022/10/23 17:36:59;;;;;;;;;;;;;;;;;;5112946;28;1837;-46
2022/10/23 17:39:27;;;;;;;;;;;;;;;;;;5113295;28;2195;-47